createdAt,value
2022-08-14T00:03:29.137Z,0
2022-08-14T00:08:41.990Z,0
2022-08-14T00:13:22.654Z,0
2022-08-14T00:18:30.326Z,0
2022-08-14T00:23:22.677Z,0
2022-08-14T00:28:23.586Z,0
2022-08-14T00:33:23.402Z,0
2022-08-14T00:38:23.416Z,0
2022-08-14T00:43:23.430Z,0
2022-08-14T00:48:34.225Z,0
2022-08-14T00:53:23.439Z,0
2022-08-14T00:58:27.694Z,0
2022-08-14T01:03:23.388Z,0
2022-08-14T01:08:51.064Z,0
2022-08-14T01:13:23.437Z,0
2022-08-14T01:18:23.427Z,0
2022-08-14T01:23:23.421Z,0
2022-08-14T01:28:34.638Z,0
2022-08-14T01:33:23.397Z,0
2022-08-14T01:38:23.418Z,0
2022-08-14T01:43:26.466Z,0
2022-08-14T01:48:23.417Z,0
2022-08-14T01:53:23.412Z,0
2022-08-14T01:58:28.671Z,0
2022-08-14T02:03:23.398Z,0
2022-08-14T02:08:34.889Z,0
2022-08-14T02:13:23.384Z,0
2022-08-14T02:18:23.395Z,0
2022-08-14T02:23:24.008Z,0
2022-08-14T02:28:56.179Z,0
2022-08-14T02:33:23.407Z,0
2022-08-14T02:38:27.093Z,0
2022-08-14T02:43:23.396Z,0
2022-08-14T02:49:01.232Z,0
2022-08-14T02:53:23.420Z,0
2022-08-14T02:58:30.403Z,0
2022-08-14T03:03:23.385Z,0
2022-08-14T03:08:23.381Z,0
2022-08-14T03:13:23.377Z,0
2022-08-14T03:18:23.385Z,0
2022-08-14T03:23:23.393Z,0
2022-08-14T03:28:29.752Z,0
2022-08-14T03:33:23.367Z,0
2022-08-14T03:39:12.074Z,0
2022-08-14T03:43:23.379Z,0
2022-08-14T03:48:27.459Z,0
2022-08-14T03:53:23.351Z,0
2022-08-14T03:58:23.550Z,0
2022-08-14T04:03:23.662Z,0
2022-08-14T04:08:30.375Z,0
2022-08-14T04:13:23.869Z,0
2022-08-14T04:18:23.355Z,2
2022-08-14T04:23:29.210Z,4
2022-08-14T04:28:58.672Z,6
2022-08-14T04:33:23.527Z,5
2022-08-14T04:38:36.333Z,6
2022-08-14T04:43:23.332Z,11
2022-08-14T04:48:33.780Z,13
2022-08-14T04:53:26.145Z,12
2022-08-14T04:58:32.534Z,11
2022-08-14T05:03:23.355Z,12
2022-08-14T05:08:31.605Z,18
2022-08-14T05:13:24.448Z,14
2022-08-14T05:18:37.364Z,16
2022-08-14T05:23:23.344Z,20
2022-08-14T05:28:23.344Z,20
2022-08-14T05:33:23.333Z,21
2022-08-14T05:38:30.939Z,24
2022-08-14T05:43:23.349Z,25
2022-08-14T05:48:33.200Z,26
2022-08-14T05:53:23.370Z,27
2022-08-14T05:58:23.322Z,29
2022-08-14T06:03:23.340Z,30
2022-08-14T06:08:31.565Z,32
2022-08-14T06:13:23.342Z,36
2022-08-14T06:18:23.347Z,38
2022-08-14T06:23:23.331Z,40
2022-08-14T06:28:27.601Z,42
2022-08-14T06:33:23.327Z,47
2022-08-14T06:38:23.440Z,48
2022-08-14T06:43:25.032Z,50
2022-08-14T06:48:23.344Z,72
2022-08-14T06:53:27.452Z,111
2022-08-14T06:58:24.936Z,116
2022-08-14T07:03:23.318Z,121
2022-08-14T07:08:23.298Z,126
2022-08-14T07:13:23.296Z,160
2022-08-14T07:18:23.331Z,192
2022-08-14T07:23:23.445Z,240
2022-08-14T07:28:23.343Z,250
2022-08-14T07:33:24.469Z,263
2022-08-14T07:38:23.311Z,323
2022-08-14T07:43:23.795Z,364
2022-08-14T07:48:24.927Z,435
2022-08-14T07:53:23.319Z,410
2022-08-14T07:58:30.506Z,423
2022-08-14T08:03:23.562Z,437
2022-08-14T08:08:26.730Z,444
2022-08-14T08:13:24.354Z,513
2022-08-14T08:18:27.919Z,525
2022-08-14T08:23:23.279Z,537
2022-08-14T08:28:25.268Z,556
2022-08-14T08:33:23.318Z,566
2022-08-14T08:39:16.126Z,580
2022-08-14T08:43:23.309Z,589
2022-08-14T08:48:31.194Z,605
2022-08-14T08:53:23.295Z,622
2022-08-14T08:58:24.993Z,634
2022-08-14T09:03:23.317Z,651
2022-08-14T09:08:26.763Z,658
2022-08-14T09:13:23.316Z,714
2022-08-14T09:18:23.297Z,747
2022-08-14T09:23:27.548Z,770
2022-08-14T09:28:24.170Z,755
2022-08-14T09:33:23.331Z,813
2022-08-14T09:38:25.934Z,515
2022-08-14T09:43:23.290Z,287
2022-08-14T09:48:27.783Z,381
2022-08-14T09:53:23.310Z,451
2022-08-14T09:58:24.726Z,876
2022-08-14T10:03:23.308Z,537
2022-08-14T10:08:25.680Z,859
2022-08-14T10:13:23.555Z,848
2022-08-14T10:18:23.282Z,630
2022-08-14T10:23:23.519Z,813
2022-08-14T10:28:39.792Z,917
2022-08-14T10:33:23.283Z,882
2022-08-14T10:38:23.279Z,656
2022-08-14T10:43:23.726Z,902
2022-08-14T10:48:24.148Z,527
2022-08-14T10:53:23.268Z,920
2022-08-14T10:58:23.263Z,147
2022-08-14T11:03:26.574Z,559
2022-08-14T11:08:23.272Z,305
2022-08-14T11:13:23.799Z,201
2022-08-14T11:18:30.198Z,601
2022-08-14T11:23:23.258Z,611
2022-08-14T11:28:46.689Z,927
2022-08-14T11:33:23.274Z,544
2022-08-14T11:38:23.294Z,584
2022-08-14T11:43:29.305Z,963
2022-08-14T11:48:59.036Z,963
2022-08-14T11:53:23.307Z,885
2022-08-14T11:58:24.029Z,629
2022-08-14T12:03:26.965Z,1023
2022-08-14T12:08:24.339Z,269
2022-08-14T12:13:23.261Z,185
2022-08-14T12:18:23.246Z,671
2022-08-14T12:23:23.275Z,748
2022-08-14T12:28:26.824Z,503
2022-08-14T12:33:23.866Z,787
2022-08-14T12:38:23.508Z,484
2022-08-14T12:43:23.516Z,563
2022-08-14T12:48:31.792Z,884
2022-08-14T12:53:23.534Z,520
2022-08-14T12:58:29.132Z,567
2022-08-14T13:03:23.487Z,854
2022-08-14T13:08:33.183Z,423
2022-08-14T13:13:23.775Z,822
2022-08-14T13:18:23.516Z,803
2022-08-14T13:23:30.771Z,829
2022-08-14T13:28:30.059Z,282
2022-08-14T13:33:23.531Z,310
2022-08-14T13:38:23.534Z,542
2022-08-14T13:43:23.598Z,483
2022-08-14T13:48:27.655Z,136
2022-08-14T13:53:23.569Z,133
2022-08-14T13:58:30.143Z,165
2022-08-14T14:03:23.545Z,765
2022-08-14T14:08:42.892Z,404
2022-08-14T14:13:23.501Z,694
2022-08-14T14:18:30.002Z,666
2022-08-14T14:23:23.542Z,679
2022-08-14T14:28:24.179Z,638
2022-08-14T14:33:45.069Z,181
2022-08-14T14:38:23.501Z,104
2022-08-14T14:43:23.570Z,140
2022-08-14T14:48:23.485Z,619
2022-08-14T14:53:23.530Z,338
2022-08-14T14:58:23.506Z,157
2022-08-14T15:03:23.525Z,137
2022-08-14T15:08:26.528Z,348
2022-08-14T15:13:24.047Z,508
2022-08-14T15:18:37.688Z,441
2022-08-14T15:23:24.043Z,390
2022-08-14T15:28:24.051Z,367
2022-08-14T15:33:24.063Z,220
2022-08-14T15:38:24.097Z,277
2022-08-14T15:43:24.080Z,300
2022-08-14T15:48:24.084Z,307
2022-08-14T15:53:24.073Z,312
2022-08-14T15:58:24.065Z,295
2022-08-14T16:03:25.111Z,245
2022-08-14T16:08:27.578Z,264
2022-08-14T16:13:39.977Z,276
2022-08-14T16:18:24.347Z,279
2022-08-14T16:23:24.328Z,236
2022-08-14T16:28:27.280Z,233
2022-08-14T16:33:27.738Z,235
2022-08-14T16:38:45.070Z,217
2022-08-14T16:43:24.278Z,151
2022-08-14T16:48:55.841Z,119
2022-08-14T16:53:24.276Z,99
2022-08-14T16:58:27.279Z,131
2022-08-14T17:03:24.318Z,124
2022-08-14T17:08:33.135Z,73
2022-08-14T17:13:27.111Z,73
2022-08-14T17:18:30.920Z,74
2022-08-14T17:23:29.857Z,57
2022-08-14T17:28:50.908Z,40
2022-08-14T17:33:24.328Z,31
2022-08-14T17:38:33.829Z,30
2022-08-14T17:43:24.285Z,28
2022-08-14T17:49:11.057Z,19
2022-08-14T17:53:24.299Z,17
2022-08-14T17:58:24.281Z,16
2022-08-14T18:03:45.006Z,12
2022-08-14T18:08:33.497Z,12
2022-08-14T18:13:26.200Z,8
2022-08-14T18:18:24.303Z,3
2022-08-14T18:23:24.289Z,2
2022-08-14T18:28:48.826Z,2
2022-08-14T18:33:24.286Z,0
2022-08-14T18:38:25.675Z,0
2022-08-14T18:43:24.273Z,0
2022-08-14T18:48:28.637Z,0
2022-08-14T18:53:25.107Z,0
2022-08-14T18:58:27.527Z,0
2022-08-14T19:03:24.292Z,0
2022-08-14T19:08:25.117Z,0
2022-08-14T19:13:24.265Z,0
2022-08-14T19:18:25.795Z,0
2022-08-14T19:23:40.766Z,0
2022-08-14T19:28:27.503Z,0
2022-08-14T19:33:24.293Z,0
2022-08-14T19:38:32.629Z,0
2022-08-14T19:43:50.610Z,0
2022-08-14T19:48:24.298Z,0
2022-08-14T19:53:24.287Z,0
2022-08-14T19:58:28.173Z,0
2022-08-14T20:03:24.694Z,0
2022-08-14T20:09:06.915Z,0
2022-08-14T20:13:24.257Z,0
2022-08-14T20:18:47.921Z,0
2022-08-14T20:23:24.272Z,0
2022-08-14T20:28:29.248Z,0
2022-08-14T20:33:24.302Z,0
2022-08-14T20:38:28.840Z,0
2022-08-14T20:43:25.259Z,0
2022-08-14T20:48:51.110Z,0
2022-08-14T20:53:25.201Z,0
2022-08-14T20:58:38.323Z,0
2022-08-14T21:03:25.148Z,0
2022-08-14T21:08:25.850Z,0
2022-08-14T21:13:26.841Z,0
2022-08-14T21:18:25.170Z,0
2022-08-14T21:23:25.183Z,0
2022-08-14T21:28:29.514Z,0
2022-08-14T21:33:25.182Z,0
2022-08-14T21:38:31.106Z,0
2022-08-14T21:43:25.320Z,0
2022-08-14T21:48:26.158Z,0
2022-08-14T21:53:25.175Z,0
2022-08-14T21:58:46.496Z,0
2022-08-14T22:03:25.138Z,0
2022-08-14T22:08:26.714Z,0
2022-08-14T22:13:25.167Z,0
2022-08-14T22:18:25.407Z,0
2022-08-14T22:23:25.748Z,0
2022-08-14T22:28:25.599Z,0
2022-08-14T22:33:25.145Z,0
2022-08-14T22:38:35.144Z,0
2022-08-14T22:43:25.165Z,0
2022-08-14T22:48:25.128Z,0
2022-08-14T22:53:29.252Z,0
2022-08-14T22:58:30.100Z,0
2022-08-14T23:03:25.214Z,0
2022-08-14T23:08:44.180Z,0
2022-08-14T23:13:25.170Z,0
2022-08-14T23:18:25.202Z,0
2022-08-14T23:23:25.147Z,0
2022-08-14T23:28:33.121Z,0
2022-08-14T23:33:25.149Z,0
2022-08-14T23:38:30.275Z,0
2022-08-14T23:43:25.173Z,0
2022-08-14T23:48:28.104Z,0
2022-08-14T23:53:28.685Z,0
2022-08-14T23:58:29.452Z,0
